Allen, Kansas
Current Conditions -  °F | °C
As of 1:53 PM on Friday 28 Nov 2014 (Local Time) from KEMP Reporting Station
Clear Clear  
Wind Chill: 65°   Ceiling: Unl
Heat Index: 65°   Visibility: 10mi
Dew Point: 32°   Wind: 22mph
Humidity: 29%   Direction: 190°S
Pressure: 29.8"   Gusts: 29mph
Location:  38.66°N, 96.17°W
Report Text: KEMP 281953Z AUTO 19019G25KT 10SM CLR 18/00 A2980 RMK AO2 SLP096 T01830000
Loading
Personal Weather Stations






























Interactive Weather Map New forecast layout! Learn more

10-Day Weather Forecast

Advertisements
Track Severe Weather on mobile